Westlake, Ohio
Current Conditions -  °F | °C
As of 2:51 AM on Friday 24 Oct 2014 (Local Time) from KCLE Reporting Station
Broken Clouds Broken Clouds  
Wind Chill: 38°   Ceiling: 25000
Heat Index: 38°   Visibility: 10mi
Dew Point: 36°   Wind: 3mph
Humidity: 93%   Direction: 160°SSE
Pressure: 30.12"   Gusts: NA
Location:  41.46°N, 81.92°W
Report Text: KCLE 240651Z 16003KT 10SM BKN250 03/02 A3012 RMK AO2 SLP202 T00330022
Loading
Personal Weather Stations






























Interactive Weather Map
Tropical Storm Tracking
New forecast layout! Learn more

10-Day Weather Forecast

Advertisements
Track Severe Weather on mobile